createdAt,value
2022-09-01T00:01:58.575Z,66.12
2022-09-01T00:06:55.364Z,66.17
2022-09-01T00:09:23.313Z,66.28
2022-09-01T00:11:53.942Z,66.42
2022-09-01T00:14:31.128Z,66.63
2022-09-01T00:19:27.708Z,66.66
2022-09-01T00:21:54.312Z,66.26
2022-09-01T00:24:20.799Z,66.83
2022-09-01T00:26:47.681Z,66.93
2022-09-01T00:29:14.161Z,67.15
2022-09-01T00:31:41.582Z,67.24
2022-09-01T00:34:08.014Z,67.37
2022-09-01T00:36:34.761Z,67.76
2022-09-01T00:39:01.594Z,67.73
2022-09-01T00:41:33.849Z,67.82
2022-09-01T00:44:05.378Z,67.98
2022-09-01T00:49:18.599Z,68.29
2022-09-01T00:54:24.368Z,68.28
2022-09-01T00:56:57.567Z,68.96
2022-09-01T00:59:26.479Z,68.76
2022-09-01T01:01:54.456Z,68.83
2022-09-01T01:04:21.072Z,68.96
2022-09-01T01:06:58.398Z,68.87
2022-09-01T01:09:27.383Z,69.06
2022-09-01T01:16:51.905Z,69.48
2022-09-01T01:19:41.844Z,69.51
2022-09-01T01:22:32.247Z,69.70
2022-09-01T01:24:58.773Z,69.46
2022-09-01T01:29:52.784Z,69.90
2022-09-01T01:32:20.872Z,70.23
2022-09-01T01:34:48.842Z,70.36
2022-09-01T01:42:10.108Z,70.68
2022-09-01T01:44:38.192Z,70.92
2022-09-01T01:47:08.333Z,71.04
2022-09-01T01:52:02.852Z,71.38
2022-09-01T01:54:32.835Z,71.80
2022-09-01T01:57:00.761Z,72.05
2022-09-01T01:59:29.533Z,72.13
2022-09-01T02:01:57.042Z,72.35
2022-09-01T02:06:52.087Z,72.97
2022-09-01T02:09:21.131Z,72.89
2022-09-01T02:11:48.070Z,73.03
2022-09-01T02:14:16.093Z,73.19
2022-09-01T02:16:43.103Z,73.61
2022-09-01T02:19:12.185Z,74.06
2022-09-01T02:21:43.526Z,73.83
2022-09-01T02:24:11.057Z,74.00
2022-09-01T02:26:42.079Z,74.14
2022-09-01T02:29:18.915Z,74.42
2022-09-01T02:34:13.991Z,74.52
2022-09-01T02:36:49.102Z,74.54
2022-09-01T02:39:26.618Z,74.80
2022-09-01T02:41:53.757Z,75.62
2022-09-01T02:44:24.392Z,75.91
2022-09-01T02:46:50.950Z,75.86
2022-09-01T02:49:28.123Z,76.07
2022-09-01T02:52:01.424Z,76.09
2022-09-01T02:54:30.976Z,76.31
2022-09-01T02:56:57.477Z,76.85
2022-09-01T02:59:27.369Z,77.07
2022-09-01T03:01:57.387Z,77.82
2022-09-01T03:04:24.358Z,77.87
2022-09-01T03:06:54.935Z,77.87
2022-09-01T03:09:22.914Z,78.16
2022-09-01T03:11:52.598Z,78.37
2022-09-01T03:14:19.842Z,78.50
2022-09-01T03:16:46.335Z,79.39
2022-09-01T03:19:15.000Z,79.11
2022-09-01T03:21:43.867Z,79.58
2022-09-01T03:24:15.060Z,79.71
2022-09-01T03:26:43.155Z,79.91
2022-09-01T03:29:09.824Z,79.99
2022-09-01T03:31:37.339Z,79.91
2022-09-01T03:34:05.938Z,79.87
2022-09-01T03:36:36.669Z,80.13
2022-09-01T03:39:03.513Z,80.58
2022-09-01T03:41:32.602Z,81.03
2022-09-01T03:43:59.758Z,81.16
2022-09-01T03:46:36.850Z,81.53
2022-09-01T03:49:07.779Z,81.66
2022-09-01T03:51:38.784Z,81.40
2022-09-01T03:54:05.546Z,81.57
2022-09-01T03:56:32.893Z,81.96
2022-09-01T03:59:00.537Z,82.25
2022-09-01T04:01:31.452Z,82.21
2022-09-01T04:03:58.441Z,82.50
2022-09-01T04:06:30.615Z,82.90
2022-09-01T04:09:02.504Z,82.49
2022-09-01T04:11:33.348Z,82.56
2022-09-01T04:14:01.022Z,82.34
2022-09-01T04:16:50.476Z,82.88
2022-09-01T04:19:26.067Z,82.99
2022-09-01T04:21:56.500Z,83.05
2022-09-01T04:24:27.901Z,83.26
2022-09-01T04:26:58.516Z,83.44
2022-09-01T04:29:28.400Z,83.61
2022-09-01T04:32:01.948Z,83.99
2022-09-01T04:34:37.035Z,83.88
2022-09-01T04:37:09.064Z,83.88
2022-09-01T04:39:36.792Z,84.10
2022-09-01T04:42:08.960Z,84.37
2022-09-01T04:44:36.626Z,84.39
2022-09-01T04:47:05.935Z,84.67
2022-09-01T04:49:33.704Z,84.98
2022-09-01T04:52:00.580Z,85.05
2022-09-01T04:54:27.403Z,84.92
2022-09-01T04:56:54.913Z,84.91
2022-09-01T04:59:24.303Z,85.04
2022-09-01T05:01:55.509Z,85.00
2022-09-01T05:04:24.826Z,84.97
2022-09-01T05:07:00.784Z,85.53
2022-09-01T05:09:38.289Z,85.10
2022-09-01T05:12:21.873Z,84.90
2022-09-01T05:17:19.302Z,85.03
2022-09-01T05:19:48.638Z,84.52
2022-09-01T05:22:21.933Z,85.33
2022-09-01T05:25:11.636Z,84.83
2022-09-01T05:27:41.339Z,84.64
2022-09-01T05:30:08.782Z,84.65
2022-09-01T05:32:39.850Z,84.27
2022-09-01T05:35:08.252Z,83.74
2022-09-01T05:37:37.469Z,83.17
2022-09-01T05:40:06.957Z,83.08
2022-09-01T05:42:37.420Z,82.96
2022-09-01T05:45:04.326Z,82.54
2022-09-01T05:47:30.993Z,82.29
2022-09-01T05:49:58.402Z,81.95
2022-09-01T05:52:26.245Z,81.40
2022-09-01T06:00:10.770Z,81.29
2022-09-01T06:02:40.914Z,80.69
2022-09-01T06:05:08.799Z,79.90
2022-09-01T06:07:40.729Z,80.17
2022-09-01T06:10:07.951Z,79.69
2022-09-01T06:12:34.646Z,79.36
2022-09-01T06:15:01.227Z,79.72
2022-09-01T06:19:58.405Z,78.65
2022-09-01T06:22:28.237Z,78.85
2022-09-01T06:25:02.266Z,78.39
2022-09-01T06:27:38.577Z,78.41
2022-09-01T06:30:14.676Z,77.84
2022-09-01T06:32:44.808Z,77.23
2022-09-01T06:35:12.218Z,76.94
2022-09-01T06:42:47.684Z,76.89
2022-09-01T06:45:17.625Z,76.53
2022-09-01T06:51:14.466Z,75.72
2022-09-01T06:55:57.910Z,75.13
2022-09-01T06:58:25.441Z,74.90
2022-09-01T07:00:52.943Z,74.99
2022-09-01T07:03:20.130Z,75.08
2022-09-01T07:06:05.390Z,73.56
2022-09-01T07:12:28.920Z,73.88
2022-09-01T07:17:52.059Z,72.55
2022-09-01T07:20:23.965Z,71.96
2022-09-01T07:23:10.697Z,71.29
2022-09-01T07:29:04.285Z,70.80
2022-09-01T07:34:41.668Z,70.30
2022-09-01T07:38:47.565Z,69.63
2022-09-01T07:43:07.319Z,69.35
2022-09-01T07:48:36.735Z,69.19
2022-09-01T07:51:35.992Z,68.01
2022-09-01T07:56:30.446Z,65.88
2022-09-01T07:58:58.594Z,65.54
2022-09-01T08:01:27.522Z,65.39
2022-09-01T08:03:57.364Z,64.88
2022-09-01T08:06:27.885Z,64.26
2022-09-01T08:08:57.313Z,63.13
2022-09-01T08:14:13.445Z,63.93
2022-09-01T08:16:40.300Z,63.33
2022-09-01T08:23:27.241Z,61.76
2022-09-01T08:25:54.282Z,60.23
2022-09-01T08:28:26.504Z,59.83
2022-09-01T08:30:53.288Z,59.60
2022-09-01T08:33:23.017Z,59.85
2022-09-01T08:40:56.411Z,58.83
2022-09-01T08:44:04.808Z,59.64
2022-09-01T08:49:27.615Z,56.86
2022-09-01T09:03:40.496Z,56.79
2022-09-01T09:11:25.231Z,56.54
2022-09-01T09:19:11.177Z,54.01
2022-09-01T09:21:40.817Z,54.34
2022-09-01T09:26:51.278Z,54.15
2022-09-01T09:29:18.019Z,54.48
2022-09-01T09:31:49.958Z,54.49
2022-09-01T09:34:38.064Z,53.41
2022-09-01T09:37:21.322Z,52.81
2022-09-01T09:45:04.248Z,52.15
2022-09-01T09:55:29.094Z,52.06
2022-09-01T09:58:08.716Z,51.14
2022-09-01T10:05:39.803Z,51.76
2022-09-01T10:08:15.093Z,51.12
2022-09-01T10:10:45.989Z,51.27
2022-09-01T10:15:57.076Z,52.10
2022-09-01T10:18:29.535Z,51.51
2022-09-01T10:21:08.571Z,50.99
2022-09-01T10:26:14.495Z,52.27
2022-09-01T10:31:17.975Z,51.70
2022-09-01T10:36:14.288Z,50.85
2022-09-01T10:38:46.356Z,52.10
2022-09-01T10:41:43.909Z,51.38
2022-09-01T10:47:29.881Z,52.22
2022-09-01T10:50:01.256Z,51.36
2022-09-01T10:52:43.881Z,51.00
2022-09-01T10:55:25.022Z,51.48
2022-09-01T10:58:07.797Z,52.05
2022-09-01T11:06:34.061Z,52.72
2022-09-01T11:11:51.332Z,51.37
2022-09-01T11:14:21.897Z,51.81
2022-09-01T11:17:25.143Z,52.43
2022-09-01T11:22:32.508Z,50.84
2022-09-01T11:32:47.230Z,50.43
2022-09-01T11:37:54.968Z,51.19
2022-09-01T11:45:33.821Z,50.15
2022-09-01T11:53:08.642Z,51.49
2022-09-01T11:55:41.618Z,51.32
2022-09-01T12:00:44.454Z,50.22
2022-09-01T12:11:20.154Z,50.08
2022-09-01T12:16:29.298Z,50.25
2022-09-01T12:23:52.554Z,49.94
2022-09-01T12:26:25.130Z,50.08
2022-09-01T12:36:31.668Z,49.72
2022-09-01T12:39:18.058Z,49.50
2022-09-01T12:41:46.454Z,50.83
2022-09-01T12:44:34.328Z,49.55
2022-09-01T12:47:10.408Z,49.77
2022-09-01T12:49:47.797Z,49.49
2022-09-01T12:54:50.099Z,48.80
2022-09-01T13:00:52.309Z,48.77
2022-09-01T13:03:20.015Z,48.22
2022-09-01T13:05:59.078Z,47.98
2022-09-01T13:15:53.812Z,47.84
2022-09-01T13:18:22.707Z,48.51
2022-09-01T13:20:51.331Z,48.12
2022-09-01T13:23:18.038Z,46.73
2022-09-01T13:25:44.782Z,47.17
2022-09-01T13:30:38.588Z,47.10
2022-09-01T13:33:28.406Z,47.03
2022-09-01T13:38:19.395Z,46.04
2022-09-01T13:40:47.776Z,46.04
2022-09-01T13:43:15.885Z,46.47
2022-09-01T13:45:42.800Z,46.32
2022-09-01T13:58:27.094Z,44.90
2022-09-01T14:00:53.734Z,44.77
2022-09-01T14:03:23.327Z,44.41
2022-09-01T14:05:50.854Z,44.54
2022-09-01T14:08:20.734Z,44.78
2022-09-01T14:13:17.918Z,43.50
2022-09-01T14:18:11.082Z,43.54
2022-09-01T14:20:42.167Z,43.50
2022-09-01T14:25:41.996Z,43.59
2022-09-01T14:30:35.053Z,43.27
2022-09-01T14:33:02.574Z,42.96
2022-09-01T14:42:55.691Z,42.83
2022-09-01T14:45:25.355Z,42.55
2022-09-01T14:47:54.690Z,42.76
2022-09-01T14:50:23.374Z,42.75
2022-09-01T14:57:45.638Z,42.23
2022-09-01T15:00:13.298Z,42.33
2022-09-01T15:02:41.265Z,42.40
2022-09-01T15:05:09.062Z,42.48
2022-09-01T15:12:30.992Z,42.00
2022-09-01T15:14:58.895Z,41.46
2022-09-01T15:22:19.618Z,41.55
2022-09-01T15:24:46.772Z,41.24
2022-09-01T15:27:13.383Z,41.70
2022-09-01T15:34:54.949Z,40.78
2022-09-01T15:37:21.380Z,40.75
2022-09-01T15:44:43.430Z,40.56
2022-09-01T15:47:09.842Z,40.68
2022-09-01T15:49:36.229Z,39.85
2022-09-01T15:54:30.664Z,40.49
2022-09-01T15:59:23.865Z,39.83
2022-09-01T16:04:24.097Z,40.71
2022-09-01T16:06:56.376Z,39.97
2022-09-01T16:19:33.341Z,40.42
2022-09-01T16:22:28.081Z,40.13
2022-09-01T16:25:00.706Z,40.07
2022-09-01T16:27:34.629Z,39.89
2022-09-01T16:34:57.880Z,40.45
2022-09-01T16:37:53.500Z,39.75
2022-09-01T16:40:44.638Z,40.38
2022-09-01T16:43:32.731Z,39.98
2022-09-01T16:46:08.323Z,39.86
2022-09-01T16:49:28.888Z,39.76
2022-09-01T16:52:15.164Z,39.83
2022-09-01T16:55:13.007Z,39.81
2022-09-01T17:00:37.958Z,40.50
2022-09-01T17:08:22.662Z,39.85
2022-09-01T17:11:25.674Z,39.99
2022-09-01T17:13:52.269Z,40.16
2022-09-01T17:16:28.981Z,40.55
2022-09-01T17:21:33.172Z,40.34
2022-09-01T17:24:17.670Z,40.22
2022-09-01T17:26:47.664Z,40.20
2022-09-01T17:29:25.530Z,40.59
2022-09-01T17:32:18.926Z,40.64
2022-09-01T17:35:23.569Z,41.13
2022-09-01T17:38:14.387Z,41.54
2022-09-01T17:43:32.201Z,42.13
2022-09-01T17:46:14.649Z,42.84
2022-09-01T17:51:16.837Z,43.72
2022-09-01T17:53:52.168Z,44.19
2022-09-01T17:56:42.303Z,44.63
2022-09-01T17:59:16.732Z,44.87
2022-09-01T18:06:57.461Z,46.12
2022-09-01T18:12:04.443Z,46.73
2022-09-01T18:14:49.745Z,47.32
2022-09-01T18:17:28.513Z,47.63
2022-09-01T18:22:43.138Z,48.08
2022-09-01T18:25:18.761Z,48.26
2022-09-01T18:27:46.622Z,48.47
2022-09-01T18:30:19.141Z,48.77
2022-09-01T18:35:28.685Z,49.34
2022-09-01T18:38:07.892Z,49.28
2022-09-01T18:40:51.022Z,49.51
2022-09-01T18:48:33.449Z,50.65
2022-09-01T18:51:11.878Z,50.23
2022-09-01T18:53:47.716Z,50.66
2022-09-01T18:56:38.104Z,50.59
2022-09-01T18:59:25.688Z,50.81
2022-09-01T19:02:17.503Z,50.83
2022-09-01T19:04:45.904Z,50.90
2022-09-01T19:07:35.603Z,51.34
2022-09-01T19:10:28.753Z,51.21
2022-09-01T19:13:01.257Z,51.39
2022-09-01T19:20:55.090Z,51.21
2022-09-01T19:23:49.632Z,51.42
2022-09-01T19:26:21.199Z,51.68
2022-09-01T19:29:12.407Z,51.56
2022-09-01T19:31:42.886Z,51.74
2022-09-01T19:34:26.386Z,51.96
2022-09-01T19:37:00.980Z,52.12
2022-09-01T19:39:34.693Z,52.08
2022-09-01T19:42:03.258Z,52.13
2022-09-01T19:44:39.665Z,52.20
2022-09-01T19:49:54.784Z,51.88
2022-09-01T19:52:40.289Z,52.05
2022-09-01T19:55:15.430Z,52.13
2022-09-01T19:58:03.405Z,52.40
2022-09-01T20:00:52.339Z,52.65
2022-09-01T20:03:44.526Z,53.00
2022-09-01T20:06:18.965Z,52.91
2022-09-01T20:08:59.742Z,52.69
2022-09-01T20:11:51.749Z,52.55
2022-09-01T20:14:38.236Z,52.91
2022-09-01T20:19:38.478Z,52.79
2022-09-01T20:22:42.821Z,52.90
2022-09-01T20:25:19.905Z,53.11
2022-09-01T20:27:57.588Z,53.30
2022-09-01T20:33:09.482Z,52.91
2022-09-01T20:35:48.040Z,52.98
2022-09-01T20:39:13.091Z,53.42
2022-09-01T20:41:57.318Z,53.69
2022-09-01T20:44:35.779Z,54.23
2022-09-01T20:47:05.278Z,54.25
2022-09-01T20:49:34.673Z,54.00
2022-09-01T20:52:14.345Z,54.27
2022-09-01T20:54:48.257Z,54.39
2022-09-01T20:57:35.392Z,54.70
2022-09-01T21:00:15.261Z,54.73
2022-09-01T21:05:26.526Z,54.67
2022-09-01T21:08:34.270Z,54.67
2022-09-01T21:11:17.961Z,55.07
2022-09-01T21:16:36.799Z,54.99
2022-09-01T21:19:29.423Z,55.34
2022-09-01T21:24:22.128Z,55.21
2022-09-01T21:26:54.878Z,55.44
2022-09-01T21:29:43.509Z,55.82
2022-09-01T21:32:11.702Z,56.00
2022-09-01T21:34:38.054Z,55.77
2022-09-01T21:41:57.503Z,55.90
2022-09-01T21:44:24.264Z,56.12
2022-09-01T21:46:50.739Z,56.28
2022-09-01T21:49:17.393Z,56.27
2022-09-01T21:51:43.813Z,56.19
2022-09-01T21:54:10.309Z,56.16
2022-09-01T21:56:37.670Z,56.31
2022-09-01T21:59:05.340Z,56.08
2022-09-01T22:01:35.341Z,56.45
2022-09-01T22:04:04.240Z,56.55
2022-09-01T22:06:31.836Z,56.72
2022-09-01T22:09:00.776Z,57.21
2022-09-01T22:11:28.889Z,57.31
2022-09-01T22:13:58.071Z,57.29
2022-09-01T22:18:51.353Z,57.22
2022-09-01T22:21:18.475Z,57.28
2022-09-01T22:23:45.469Z,57.20
2022-09-01T22:26:20.793Z,57.59
2022-09-01T22:28:48.301Z,57.29
2022-09-01T22:31:19.549Z,57.60
2022-09-01T22:33:46.418Z,57.55
2022-09-01T22:36:20.546Z,57.81
2022-09-01T22:38:46.904Z,57.87
2022-09-01T22:41:17.878Z,57.76
2022-09-01T22:43:44.285Z,58.05
2022-09-01T22:46:10.682Z,58.03
2022-09-01T22:48:37.081Z,58.18
2022-09-01T22:51:08.349Z,58.01
2022-09-01T22:53:36.817Z,58.34
2022-09-01T22:56:10.978Z,58.37
2022-09-01T22:58:37.474Z,58.83
2022-09-01T23:01:04.107Z,58.92
2022-09-01T23:03:30.527Z,59.10
2022-09-01T23:06:27.525Z,59.16
2022-09-01T23:08:56.635Z,59.25
2022-09-01T23:11:23.357Z,59.55
2022-09-01T23:13:50.049Z,59.39
2022-09-01T23:18:46.219Z,59.94
2022-09-01T23:21:15.064Z,60.00
2022-09-01T23:23:41.877Z,60.17
2022-09-01T23:26:10.739Z,60.22
2022-09-01T23:28:38.445Z,60.60
2022-09-01T23:31:08.632Z,60.82
2022-09-01T23:33:35.037Z,61.10
2022-09-01T23:38:28.726Z,61.65
2022-09-01T23:40:55.959Z,62.20
2022-09-01T23:43:24.576Z,62.30
2022-09-01T23:45:56.457Z,62.32
2022-09-01T23:48:24.750Z,62.58
2022-09-01T23:50:54.129Z,62.91
2022-09-01T23:53:23.672Z,63.14
2022-09-01T23:55:55.154Z,63.28
2022-09-01T23:58:23.964Z,63.81
